createdAt,value
2023-04-17T00:00:36.988Z,3.03
2023-04-17T00:10:38.923Z,3.00
2023-04-17T00:20:42.262Z,3.20
2023-04-17T00:30:44.344Z,2.42
2023-04-17T00:40:47.902Z,2.90
2023-04-17T00:50:50.715Z,9.20
2023-04-17T01:00:54.063Z,10.55
2023-04-17T01:10:56.043Z,10.80
2023-04-17T01:20:59.579Z,12.88
2023-04-17T01:31:03.335Z,13.35
2023-04-17T01:41:05.615Z,12.63
2023-04-17T01:51:08.954Z,12.95
2023-04-17T02:01:10.920Z,12.50
2023-04-17T02:11:14.260Z,13.52
2023-04-17T02:21:16.300Z,13.88
2023-04-17T02:31:19.642Z,17.52
2023-04-17T02:41:21.595Z,15.65
2023-04-17T02:51:24.994Z,17.17
2023-04-17T03:01:27.023Z,17.58
2023-04-17T03:11:30.496Z,18.00
2023-04-17T03:21:32.556Z,17.58
2023-04-17T03:31:35.938Z,17.85
2023-04-17T03:41:37.907Z,19.73
2023-04-17T03:51:41.283Z,19.40
2023-04-17T04:01:45.338Z,20.20
2023-04-17T04:11:49.970Z,19.50
2023-04-17T04:21:52.101Z,22.77
2023-04-17T04:31:55.495Z,19.92
2023-04-17T04:41:58.506Z,21.13
2023-04-17T04:52:01.812Z,20.50
2023-04-17T05:02:04.000Z,19.40
2023-04-17T05:12:07.954Z,18.73
2023-04-17T05:22:09.925Z,21.83
2023-04-17T05:32:13.270Z,21.30
2023-04-17T05:42:15.196Z,22.55
2023-04-17T05:52:18.652Z,20.33
2023-04-17T06:02:20.667Z,22.35
2023-04-17T06:12:24.549Z,21.60
2023-04-17T06:22:26.466Z,21.27
2023-04-17T06:32:30.016Z,20.33
2023-04-17T06:42:31.951Z,20.95
2023-04-17T06:52:35.299Z,22.65
2023-04-17T07:02:37.326Z,21.33
2023-04-17T07:12:40.765Z,19.45
2023-04-17T07:22:42.791Z,18.95
2023-04-17T07:32:46.581Z,9.30
2023-04-17T07:42:48.589Z,7.53
2023-04-17T07:52:51.943Z,6.10
2023-04-17T08:02:54.071Z,7.10
2023-04-17T08:12:57.754Z,5.10
2023-04-17T08:22:59.825Z,5.65
2023-04-17T08:33:03.351Z,6.63
2023-04-17T08:43:05.535Z,5.25
2023-04-17T08:53:09.874Z,6.03
2023-04-17T09:03:13.196Z,5.50
2023-04-17T09:13:18.531Z,7.47
2023-04-17T09:23:20.975Z,5.30
2023-04-17T09:33:24.317Z,5.38
2023-04-17T09:43:40.370Z,5.25
2023-04-17T09:53:43.788Z,4.70
2023-04-17T10:03:46.034Z,4.28
2023-04-17T10:13:55.502Z,4.35
2023-04-17T10:23:57.477Z,3.92
2023-04-17T10:34:00.840Z,3.38
2023-04-17T10:44:02.778Z,4.65
2023-04-17T10:54:06.778Z,2.45
2023-04-17T11:04:09.311Z,3.38
2023-04-17T11:14:14.817Z,3.53
2023-04-17T11:24:23.309Z,4.40
2023-04-17T11:34:27.334Z,4.72
2023-04-17T11:44:29.937Z,4.18
2023-04-17T11:54:36.327Z,4.30
2023-04-17T12:04:39.715Z,4.82
2023-04-17T12:14:44.652Z,4.30
2023-04-17T12:24:46.593Z,4.90
2023-04-17T12:34:49.924Z,5.68
2023-04-17T12:44:51.961Z,4.35
2023-04-17T12:54:55.323Z,5.22
2023-04-17T13:04:57.318Z,5.13
2023-04-17T13:15:00.664Z,4.35
2023-04-17T13:25:03.083Z,4.38
2023-04-17T13:35:07.804Z,5.10
2023-04-17T13:45:10.534Z,4.05
2023-04-17T13:55:13.882Z,4.25
2023-04-17T14:05:16.355Z,4.82
2023-04-17T14:15:19.813Z,4.80
2023-04-17T14:25:21.838Z,4.75
2023-04-17T14:35:26.868Z,4.88
2023-04-17T14:45:28.996Z,5.88
2023-04-17T14:55:32.321Z,6.78
2023-04-17T15:05:34.338Z,7.65
2023-04-17T15:15:37.939Z,6.45
2023-04-17T15:25:40.169Z,7.25
2023-04-17T15:35:43.753Z,9.07
2023-04-17T15:45:47.629Z,8.55
2023-04-17T15:55:52.663Z,9.18
2023-04-17T16:05:54.674Z,9.35
2023-04-17T16:16:00.625Z,8.23
2023-04-17T16:26:02.734Z,8.07
2023-04-17T16:36:06.491Z,9.70
2023-04-17T16:46:21.032Z,8.55
2023-04-17T16:56:28.092Z,9.80
2023-04-17T17:06:30.022Z,9.38
2023-04-17T17:16:33.379Z,9.70
2023-04-17T17:26:35.371Z,8.73
2023-04-17T17:36:38.679Z,12.45
2023-04-17T17:46:40.638Z,12.00
2023-04-17T17:56:44.012Z,12.75
2023-04-17T18:06:46.960Z,11.80
2023-04-17T20:58:14.589Z,21.95
2023-04-17T21:08:16.548Z,20.52
2023-04-17T21:18:19.887Z,21.52
2023-04-17T21:28:21.854Z,19.50
2023-04-17T21:38:25.159Z,21.65
2023-04-17T21:48:27.174Z,22.90
2023-04-17T21:58:30.465Z,22.73
2023-04-17T22:08:40.983Z,25.08
2023-04-17T22:18:44.320Z,22.23
2023-04-17T22:28:46.260Z,25.10
2023-04-17T22:38:49.582Z,22.33
2023-04-17T22:48:51.563Z,22.10
2023-04-17T22:58:54.873Z,20.48
2023-04-17T23:08:56.776Z,19.40
2023-04-17T23:19:00.084Z,20.48
2023-04-17T23:29:05.044Z,21.35
2023-04-17T23:39:11.172Z,19.10
2023-04-17T23:49:13.062Z,18.63
2023-04-17T23:59:16.340Z,22.02
